Time;durP1;ratioP1;P1;durP2;ratioP2;P2;SDS_P1;SDS_P2;PMS_P1;PMS_P2;Temp;Humidity;BMP_temperature;BMP_pressure;BME280_temperature;BME280_humidity;BME280_pressure;Samples;Min_cycle;Max_cycle;Signal;HPM_P1;HPM_P2
2022/05/14 00:01:22;;;;;;;3.87;3.40;;;;;;;;;;5052821;28;20450;-60
2022/05/14 00:03:50;;;;;;;3.10;2.80;;;;;;;;;;5052746;28;20527;-60
2022/05/14 00:06:18;;;;;;;4.17;3.60;;;;;;;;;;5053016;28;20535;-60
2022/05/14 00:08:45;;;;;;;5.73;3.40;;;;;;;;;;5052911;28;20476;-60
2022/05/14 00:13:58;;;;;;;4.27;3.27;;;;;;;;;;5052718;28;20844;-59
2022/05/14 00:16:26;;;;;;;5.40;2.73;;;;;;;;;;5053167;28;20995;-59
2022/05/14 00:18:54;;;;;;;2.73;2.37;;;;;;;;;;5052935;28;20803;-60
2022/05/14 00:21:22;;;;;;;3.43;2.70;;;;;;;;;;5052792;28;20458;-59
2022/05/14 00:23:49;;;;;;;2.77;2.57;;;;;;;;;;5052606;28;20460;-59
2022/05/14 00:26:17;;;;;;;3.60;2.70;;;;;;;;;;5052707;28;20451;-59
2022/05/14 00:28:44;;;;;;;4.13;2.93;;;;;;;;;;5052537;28;20813;-59
2022/05/14 00:31:11;;;;;;;4.37;3.00;;;;;;;;;;5052558;28;21014;-59
2022/05/14 00:33:38;;;;;;;5.80;2.80;;;;;;;;;;5052617;28;20563;-60
2022/05/14 00:36:07;;;;;;;4.03;3.60;;;;;;;;;;5052701;28;20502;-60
2022/05/14 00:38:34;;;;;;;5.13;2.90;;;;;;;;;;5052574;28;20539;-60
2022/05/14 00:41:03;;;;;;;2.90;2.70;;;;;;;;;;5052520;28;20494;-59
2022/05/14 00:43:30;;;;;;;3.77;3.23;;;;;;;;;;5054868;28;21003;-60
2022/05/14 00:45:59;;;;;;;3.13;2.93;;;;;;;;;;5056344;28;20539;-59
2022/05/14 00:48:27;;;;;;;3.53;2.90;;;;;;;;;;5056454;28;20811;-59
2022/05/14 00:50:56;;;;;;;2.87;2.67;;;;;;;;;;5056349;28;20456;-59
2022/05/14 00:53:26;;;;;;;4.20;3.00;;;;;;;;;;5056070;28;20448;-59
2022/05/14 00:55:54;;;;;;;4.43;2.93;;;;;;;;;;5056010;28;20448;-60
2022/05/14 00:58:25;;;;;;;3.87;2.93;;;;;;;;;;5056218;28;20444;-60
2022/05/14 01:00:52;;;;;;;2.90;2.70;;;;;;;;;;5056133;28;20547;-59
2022/05/14 01:03:21;;;;;;;4.83;3.17;;;;;;;;;;5056032;28;20528;-59
2022/05/14 01:05:48;;;;;;;4.30;3.37;;;;;;;;;;5055944;28;20452;-59
2022/05/14 01:08:15;;;;;;;3.50;3.20;;;;;;;;;;5055753;28;20451;-60
2022/05/14 01:10:45;;;;;;;6.43;3.70;;;;;;;;;;5055753;28;20539;-60
2022/05/14 01:13:12;;;;;;;5.47;3.73;;;;;;;;;;5055967;28;20445;-60
2022/05/14 01:15:40;;;;;;;4.30;3.23;;;;;;;;;;5055785;28;20571;-60
2022/05/14 01:18:07;;;;;;;3.80;3.20;;;;;;;;;;5055708;28;20532;-60
2022/05/14 01:20:35;;;;;;;3.87;3.20;;;;;;;;;;5055641;28;20559;-60
2022/05/14 01:23:03;;;;;;;6.13;3.43;;;;;;;;;;5055602;28;20540;-60
2022/05/14 01:28:21;;;;;;;4.30;3.17;;;;;;;;;;5055545;28;20493;-60
2022/05/14 01:30:51;;;;;;;3.03;2.70;;;;;;;;;;5055461;28;20444;-60
2022/05/14 01:33:19;;;;;;;3.57;3.10;;;;;;;;;;5055417;28;20506;-60
2022/05/14 01:35:46;;;;;;;3.17;2.90;;;;;;;;;;5055211;28;20487;-60
2022/05/14 01:38:13;;;;;;;4.43;3.80;;;;;;;;;;5055455;28;20459;-60
2022/05/14 01:40:40;;;;;;;4.70;3.30;;;;;;;;;;5055340;28;20888;-60
2022/05/14 01:43:07;;;;;;;4.80;3.07;;;;;;;;;;5055114;28;20472;-60
2022/05/14 01:45:36;;;;;;;4.03;3.27;;;;;;;;;;5055162;28;20549;-60
2022/05/14 01:48:03;;;;;;;4.07;3.33;;;;;;;;;;5055022;28;20542;-59
2022/05/14 01:50:30;;;;;;;5.97;3.13;;;;;;;;;;5055354;28;20564;-59
2022/05/14 01:52:57;;;;;;;3.60;3.30;;;;;;;;;;5054683;28;20893;-59
2022/05/14 01:55:24;;;;;;;6.60;3.30;;;;;;;;;;5054975;28;20484;-59
2022/05/14 01:57:51;;;;;;;4.50;4.10;;;;;;;;;;5054805;28;21023;-59
2022/05/14 02:00:19;;;;;;;7.57;3.30;;;;;;;;;;5054873;28;20881;-59
2022/05/14 02:02:47;;;;;;;4.43;3.90;;;;;;;;;;5054736;28;20452;-59
2022/05/14 02:05:14;;;;;;;7.97;3.90;;;;;;;;;;5054926;28;20444;-59
2022/05/14 02:07:42;;;;;;;3.77;3.47;;;;;;;;;;5054840;28;20552;-59
2022/05/14 02:10:09;;;;;;;4.07;3.77;;;;;;;;;;5054766;28;20855;-59
2022/05/14 02:12:37;;;;;;;4.43;4.03;;;;;;;;;;5054668;28;20863;-59
2022/05/14 02:15:04;;;;;;;6.27;3.67;;;;;;;;;;5054415;28;20487;-58
2022/05/14 02:17:31;;;;;;;4.00;3.67;;;;;;;;;;5054755;28;20444;-59
2022/05/14 02:19:59;;;;;;;4.40;3.90;;;;;;;;;;5054651;28;20531;-59
2022/05/14 02:22:26;;;;;;;5.53;4.00;;;;;;;;;;5054540;28;20452;-59
2022/05/14 02:24:54;;;;;;;4.30;3.60;;;;;;;;;;5054588;28;21002;-59
2022/05/14 02:27:20;;;;;;;3.63;3.33;;;;;;;;;;5054433;28;20444;-59
2022/05/14 02:29:54;;;;;;;5.83;3.40;;;;;;;;;;5054181;28;20531;-59
2022/05/14 02:32:23;;;;;;;4.10;3.63;;;;;;;;;;5054415;28;20538;-59
2022/05/14 02:34:50;;;;;;;3.33;3.13;;;;;;;;;;5054262;28;20480;-59
2022/05/14 02:37:19;;;;;;;6.43;3.97;;;;;;;;;;5054173;28;20444;-59
2022/05/14 02:39:46;;;;;;;6.93;3.60;;;;;;;;;;5054181;28;20540;-59
2022/05/14 02:42:13;;;;;;;6.13;3.60;;;;;;;;;;5054020;28;20480;-60
2022/05/14 02:44:39;;;;;;;4.17;3.80;;;;;;;;;;5054443;28;20456;-59
2022/05/14 02:47:07;;;;;;;4.57;3.47;;;;;;;;;;5054199;28;20456;-59
2022/05/14 02:49:34;;;;;;;5.23;4.73;;;;;;;;;;5053867;28;20460;-59
2022/05/14 02:52:00;;;;;;;4.07;3.70;;;;;;;;;;5053941;28;20518;-59
2022/05/14 02:54:29;;;;;;;6.50;4.10;;;;;;;;;;5053731;28;20483;-59
2022/05/14 02:56:56;;;;;;;6.30;4.13;;;;;;;;;;5053730;28;20459;-59
2022/05/14 02:59:23;;;;;;;3.70;3.50;;;;;;;;;;5053725;28;20994;-59
2022/05/14 03:01:50;;;;;;;5.23;3.87;;;;;;;;;;5053843;28;20491;-59
2022/05/14 03:04:17;;;;;;;8.73;3.80;;;;;;;;;;5053458;28;20483;-59
2022/05/14 03:06:44;;;;;;;9.77;4.57;;;;;;;;;;5053264;28;20462;-59
2022/05/14 03:09:11;;;;;;;4.07;3.77;;;;;;;;;;5053518;28;20789;-59
2022/05/14 03:11:39;;;;;;;4.47;3.90;;;;;;;;;;5053456;28;21011;-59
2022/05/14 03:14:06;;;;;;;5.43;4.00;;;;;;;;;;5053585;28;20460;-59
2022/05/14 03:16:33;;;;;;;4.07;3.80;;;;;;;;;;5053559;28;20961;-59
2022/05/14 03:19:00;;;;;;;7.10;3.43;;;;;;;;;;5053583;28;20957;-59
2022/05/14 03:21:27;;;;;;;3.80;3.40;;;;;;;;;;5053354;28;20462;-59
2022/05/14 03:23:54;;;;;;;4.30;3.90;;;;;;;;;;5053307;28;20455;-59
2022/05/14 03:26:21;;;;;;;3.80;3.50;;;;;;;;;;5053469;28;20456;-59
2022/05/14 03:28:49;;;;;;;4.40;4.00;;;;;;;;;;5053465;28;20872;-59
2022/05/14 03:31:16;;;;;;;6.40;3.47;;;;;;;;;;5053120;28;20971;-59
2022/05/14 03:33:43;;;;;;;5.60;4.00;;;;;;;;;;5053135;28;20967;-59
2022/05/14 03:36:10;;;;;;;4.03;3.67;;;;;;;;;;5053077;28;20605;-59
2022/05/14 03:38:38;;;;;;;3.93;3.40;;;;;;;;;;5053002;28;20471;-59
2022/05/14 03:41:05;;;;;;;5.63;3.80;;;;;;;;;;5053218;28;20539;-59
2022/05/14 03:43:33;;;;;;;6.23;3.80;;;;;;;;;;5052906;28;20472;-59
2022/05/14 03:46:01;;;;;;;4.87;4.20;;;;;;;;;;5053092;28;20495;-59
2022/05/14 03:48:28;;;;;;;5.83;3.73;;;;;;;;;;5052909;28;20448;-59
2022/05/14 03:50:55;;;;;;;4.37;3.70;;;;;;;;;;5052894;28;20452;-59
2022/05/14 03:53:23;;;;;;;4.80;3.83;;;;;;;;;;5053055;28;20459;-59
2022/05/14 03:55:50;;;;;;;4.73;4.17;;;;;;;;;;5052981;28;20483;-59
2022/05/14 03:58:17;;;;;;;7.80;4.57;;;;;;;;;;5052782;28;21031;-59
2022/05/14 04:00:44;;;;;;;5.77;4.30;;;;;;;;;;5052938;28;20449;-59
2022/05/14 04:03:12;;;;;;;6.50;4.80;;;;;;;;;;5052908;28;20480;-59
2022/05/14 04:05:40;;;;;;;5.70;3.20;;;;;;;;;;5052660;28;20546;-59
2022/05/14 04:08:07;;;;;;;4.90;4.37;;;;;;;;;;5052912;28;20452;-59
2022/05/14 04:10:34;;;;;;;4.50;4.20;;;;;;;;;;5052714;28;21014;-59
2022/05/14 04:13:01;;;;;;;4.83;4.03;;;;;;;;;;5052803;28;20535;-59
2022/05/14 04:15:28;;;;;;;7.30;4.40;;;;;;;;;;5052668;28;20820;-59
2022/05/14 04:17:55;;;;;;;4.17;3.73;;;;;;;;;;5056258;28;20535;-59
2022/05/14 04:20:24;;;;;;;4.17;3.87;;;;;;;;;;5056940;28;20448;-59
2022/05/14 04:22:51;;;;;;;6.03;4.83;;;;;;;;;;5056825;28;20542;-59
2022/05/14 04:25:18;;;;;;;4.73;4.30;;;;;;;;;;5056733;28;20460;-59
2022/05/14 04:27:46;;;;;;;4.83;4.17;;;;;;;;;;5056710;28;20448;-59
2022/05/14 04:30:14;;;;;;;5.07;4.20;;;;;;;;;;5056592;28;20535;-59
2022/05/14 04:32:41;;;;;;;4.23;3.93;;;;;;;;;;5056406;28;20539;-59
2022/05/14 04:35:09;;;;;;;6.37;4.23;;;;;;;;;;5056561;28;20494;-59
2022/05/14 04:37:37;;;;;;;5.00;4.20;;;;;;;;;;5056532;28;20559;-59
2022/05/14 04:40:04;;;;;;;4.23;3.83;;;;;;;;;;5056445;28;20559;-59
2022/05/14 04:42:31;;;;;;;4.47;4.17;;;;;;;;;;5056195;28;20904;-59
2022/05/14 04:44:58;;;;;;;12.57;4.20;;;;;;;;;;5056284;28;20868;-59
2022/05/14 04:47:25;;;;;;;6.27;4.23;;;;;;;;;;5056453;28;20868;-59
2022/05/14 04:49:52;;;;;;;4.13;3.80;;;;;;;;;;5056319;28;20448;-59
2022/05/14 04:52:19;;;;;;;4.50;4.17;;;;;;;;;;5056322;28;20444;-59
2022/05/14 04:54:47;;;;;;;5.10;3.87;;;;;;;;;;5056063;28;20893;-59
2022/05/14 04:57:14;;;;;;;8.70;4.47;;;;;;;;;;5056085;28;20448;-59
2022/05/14 04:59:41;;;;;;;5.07;3.70;;;;;;;;;;5055959;28;20536;-59
2022/05/14 05:04:54;;;;;;;6.90;4.40;;;;;;;;;;5056020;28;20494;-59
2022/05/14 05:07:21;;;;;;;4.33;3.93;;;;;;;;;;5056089;28;20443;-59
2022/05/14 05:09:49;;;;;;;7.10;4.07;;;;;;;;;;5055929;28;20444;-59
2022/05/14 05:12:16;;;;;;;7.50;4.17;;;;;;;;;;5055740;28;20836;-59
2022/05/14 05:14:43;;;;;;;9.00;4.27;;;;;;;;;;5055809;28;20904;-59
2022/05/14 05:17:09;;;;;;;10.83;4.30;;;15.50;99.90;;;;;;5055779;28;20539;-59
2022/05/14 05:19:36;;;;;;;7.87;3.83;;;15.60;99.90;;;;;;5055747;28;20516;-59
2022/05/14 05:22:03;;;;;;;4.23;3.93;;;15.70;99.90;;;;;;5055730;28;20539;-59
2022/05/14 05:24:30;;;;;;;6.23;4.23;;;15.80;99.90;;;;;;5055544;28;20454;-59
2022/05/14 05:26:57;;;;;;;3.50;3.20;;;15.90;99.90;;;;;;5055540;28;20460;-59
2022/05/14 05:29:24;;;;;;;4.50;3.57;;;16.10;99.90;;;;;;5054515;28;20452;-59
2022/05/14 05:31:50;;;;;;;4.23;3.83;;;16.20;99.90;;;;;;5055607;28;20448;-59
2022/05/14 05:34:18;;;;;;;5.87;3.70;;;16.20;99.90;;;;;;5055505;28;20535;-59
2022/05/14 05:36:44;;;;;;;4.43;3.60;;;16.30;99.90;;;;;;5055427;28;21029;-59
2022/05/14 05:39:11;;;;;;;4.90;3.87;;;16.40;99.90;;;;;;5055194;28;20448;-59
2022/05/14 05:41:38;;;;;;;6.13;3.60;;;16.50;99.90;;;;;;5055114;28;20463;-59
2022/05/14 05:44:06;;;;;;;7.27;3.30;;;16.60;99.90;;;;;;5055029;28;20478;-59
2022/05/14 05:46:33;;;;;;;3.87;3.10;;;16.70;99.90;;;;;;5055326;28;20543;-59
2022/05/14 05:49:00;;;;;;;5.00;3.60;;;16.80;99.90;;;;;;5055023;28;20978;-59
2022/05/14 05:51:27;;;;;;;8.13;3.83;;;17.00;99.90;;;;;;5055053;28;20449;-59
2022/05/14 05:56:56;;;;;;;5.67;3.67;;;17.20;99.90;;;;;;5054891;28;20491;-59
2022/05/14 05:59:25;;;;;;;8.50;3.57;;;17.20;99.90;;;;;;5055083;28;20456;-59
2022/05/14 06:01:52;;;;;;;5.40;3.93;;;17.30;99.90;;;;;;5054886;28;20455;-59
2022/05/14 06:04:19;;;;;;;6.23;3.60;;;17.40;99.90;;;;;;5054752;28;20859;-59
2022/05/14 06:06:46;;;;;;;4.63;2.80;;;17.50;99.90;;;;;;5054914;28;20895;-59
2022/05/14 06:09:15;;;;;;;6.20;2.90;;;17.60;99.90;;;;;;5054833;28;20475;-59
2022/05/14 06:11:42;;;;;;;4.20;2.80;;;17.70;99.90;;;;;;5054658;28;20448;-59
2022/05/14 06:14:09;;;;;;;5.83;4.00;;;17.70;99.90;;;;;;5054552;28;20467;-59
2022/05/14 06:16:37;;;;;;;7.27;3.20;;;17.60;99.90;;;;;;5054483;28;20480;-59
2022/05/14 06:19:04;;;;;;;5.60;3.20;;;17.60;99.90;;;;;;5054476;28;20878;-59
2022/05/14 06:21:30;;;;;;;7.10;3.33;;;17.70;99.90;;;;;;5054573;28;20455;-59
2022/05/14 06:23:57;;;;;;;4.93;3.30;;;17.80;99.90;;;;;;5054548;28;20543;-59
2022/05/14 06:26:23;;;;;;;5.37;3.10;;;17.90;99.90;;;;;;5054434;28;20448;-59
2022/05/14 06:28:50;;;;;;;7.27;3.00;;;18.10;99.90;;;;;;5054303;28;20488;-59
2022/05/14 06:31:17;;;;;;;6.67;3.47;;;18.20;99.90;;;;;;5054127;28;20551;-59
2022/05/14 06:33:46;;;;;;;3.10;2.80;;;18.40;99.90;;;;;;5054448;28;20804;-59
2022/05/14 06:36:12;;;;;;;5.23;2.67;;;18.30;99.90;;;;;;5054137;28;20480;-59
2022/05/14 06:38:39;;;;;;;4.03;2.87;;;18.20;99.90;;;;;;5054158;28;20904;-59
2022/05/14 06:41:06;;;;;;;3.90;2.97;;;18.10;99.90;;;;;;5054085;28;20479;-59
2022/05/14 06:43:33;;;;;;;4.43;2.23;;;18.10;99.90;;;;;;5053814;28;20566;-59
2022/05/14 06:46:00;;;;;;;5.37;2.83;;;18.10;99.90;;;;;;5053807;28;20540;-58
2022/05/14 06:48:26;;;;;;;5.90;4.30;;;18.00;99.90;;;;;;5054037;28;20452;-59
2022/05/14 06:50:55;;;;;;;5.37;2.73;;;17.80;99.90;;;;;;5054025;28;20476;-59
2022/05/14 06:53:23;;;;;;;5.77;2.37;;;17.70;99.90;;;;;;5053972;28;20448;-59
2022/05/14 06:55:53;;;;;;;8.37;2.30;;;17.70;99.90;;;;;;5053647;28;20508;-59
2022/05/14 06:58:24;;;;;;;5.23;2.67;;;17.70;99.90;;;;;;5053719;28;20539;-59
2022/05/14 07:00:51;;;;;;;8.83;3.10;;;17.70;99.90;;;;;;5053833;28;20543;-59
2022/05/14 07:08:48;;;;;;;6.60;2.67;;;17.80;99.90;;;;;;5053608;28;20436;-59
2022/05/14 07:11:14;;;;;;;4.60;3.00;;;18.00;99.90;;;;;;5053688;28;20539;-59
2022/05/14 07:13:41;;;;;;;5.70;2.60;;;18.10;99.90;;;;;;5053430;28;20994;-59
2022/05/14 07:16:07;;;;;;;4.50;2.73;;;18.10;99.90;;;;;;5053328;28;20476;-59
2022/05/14 07:18:34;;;;;;;6.33;3.20;;;18.30;99.90;;;;;;5053482;28;20450;-59
2022/05/14 07:21:00;;;;;;;7.10;2.67;;;18.30;99.90;;;;;;5053325;28;20951;-59
2022/05/14 07:23:29;;;;;;;3.40;2.40;;;18.40;99.90;;;;;;5053201;28;20451;-59
2022/05/14 07:25:55;;;;;;;11.43;2.73;;;18.50;99.90;;;;;;5053489;28;20839;-59
2022/05/14 07:28:22;;;;;;;4.80;3.27;;;18.50;99.90;;;;;;5053329;28;20444;-59
2022/05/14 07:30:48;;;;;;;8.07;2.70;;;18.50;99.90;;;;;;5053226;28;20451;-59
2022/05/14 07:33:14;;;;;;;7.43;3.30;;;18.60;99.90;;;;;;5053220;28;20450;-59
2022/05/14 07:35:41;;;;;;;4.67;3.03;;;18.60;99.90;;;;;;5053065;28;20472;-59
2022/05/14 07:38:08;;;;;;;3.90;2.73;;;18.60;99.90;;;;;;5052963;28;20462;-59
2022/05/14 07:40:37;;;;;;;3.73;2.93;;;18.60;99.90;;;;;;5053172;28;20540;-59
2022/05/14 07:43:08;;;;;;;7.53;2.53;;;18.50;99.90;;;;;;5052992;28;20516;-59
2022/05/14 07:45:38;;;;;;;6.37;2.97;;;18.60;99.90;;;;;;5052945;28;20448;-59
2022/05/14 07:48:09;;;;;;;4.90;2.93;;;18.60;99.90;;;;;;5053015;28;20458;-59
2022/05/14 07:50:36;;;;;;;7.60;3.03;;;18.80;99.90;;;;;;5052677;28;20888;-59
2022/05/14 07:53:03;;;;;;;8.03;3.50;;;18.90;99.90;;;;;;5052898;28;20455;-59
2022/05/14 07:55:30;;;;;;;7.50;2.90;;;19.10;99.90;;;;;;5052721;28;20448;-59
2022/05/14 07:57:58;;;;;;;6.50;3.10;;;19.20;99.90;;;;;;5052848;28;20543;-59
2022/05/14 08:00:25;;;;;;;9.50;3.53;;;19.20;99.90;;;;;;5052838;28;20896;-59
2022/05/14 08:02:52;;;;;;;8.67;3.53;;;19.20;99.90;;;;;;5052678;28;20862;-60
2022/05/14 08:05:20;;;;;;;14.13;3.27;;;19.30;99.90;;;;;;5052659;28;20974;-60
2022/05/14 08:07:47;;;;;;;5.53;3.30;;;19.40;99.90;;;;;;5052855;28;20502;-60
2022/05/14 08:10:16;;;;;;;8.70;2.80;;;19.50;99.90;;;;;;5052853;28;20448;-60
2022/05/14 08:12:44;;;;;;;7.43;3.10;;;19.60;99.90;;;;;;5052695;28;21007;-60
2022/05/14 08:15:15;;;;;;;7.17;3.67;;;19.80;99.90;;;;;;5052641;28;20444;-60
2022/05/14 08:17:42;;;;;;;4.10;3.40;;;19.80;99.90;;;;;;5052612;28;20563;-60
2022/05/14 08:20:09;;;;;;;12.77;3.70;;;19.90;99.90;;;;;;5052779;28;20455;-60
2022/05/14 08:25:35;;;;;;;5.90;2.90;;;19.80;99.90;;;;;;5010699;28;20446;-60
2022/05/14 08:28:02;;;;;;;8.83;2.80;;;19.80;99.90;;;;;;5010597;28;20810;-60
2022/05/14 08:30:32;;;;;;;6.50;3.23;;;19.70;99.90;;;;;;5028853;28;20452;-60
2022/05/14 08:32:59;;;;;;;9.00;3.40;;;19.80;99.90;;;;;;5052613;28;20816;-60
2022/05/14 08:35:26;;;;;;;6.93;2.87;;;20.00;99.90;;;;;;5052549;28;20815;-60
2022/05/14 08:37:55;;;;;;;8.53;3.63;;;20.00;99.90;;;;;;5052497;28;20482;-60
2022/05/14 08:40:26;;;;;;;9.33;3.40;;;20.00;99.90;;;;;;5052355;28;20454;-60
2022/05/14 08:42:55;;;;;;;6.13;3.33;;;19.90;99.90;;;;;;5052127;28;20482;-60
2022/05/14 08:45:24;;;;;;;10.07;3.60;;;19.90;99.90;;;;;;5052506;28;20444;-60
2022/05/14 08:47:56;;;;;;;5.97;2.90;;;19.80;99.90;;;;;;5052307;28;20452;-60
2022/05/14 08:50:27;;;;;;;7.97;2.77;;;19.70;99.90;;;;;;5052348;28;20458;-60
2022/05/14 08:53:00;;;;;;;6.17;3.10;;;19.70;99.90;;;;;;5052291;28;20803;-60
2022/05/14 08:55:31;;;;;;;6.80;3.57;;;19.80;99.90;;;;;;5052550;28;20539;-60
2022/05/14 08:58:07;;;;;;;8.73;2.93;;;19.80;99.90;;;;;;5052415;28;20488;-60
2022/05/14 09:00:33;;;;;;;7.37;3.13;;;19.80;99.90;;;;;;5052375;28;20452;-60
2022/05/14 09:03:01;;;;;;;10.50;3.97;;;19.80;99.90;;;;;;5052574;28;20823;-60
2022/05/14 09:05:30;;;;;;;10.53;3.30;;;20.00;99.90;;;;;;5055890;28;20566;-58
2022/05/14 09:07:57;;;;;;;6.70;3.00;;;20.30;99.90;;;;;;5055960;28;20456;-60
2022/05/14 09:10:26;;;;;;;12.17;2.87;;;20.40;99.90;;;;;;5055938;28;20448;-60
2022/05/14 09:12:55;;;;;;;6.97;2.67;;;20.40;99.90;;;;;;5055724;28;20455;-60
2022/05/14 09:15:23;;;;;;;7.20;2.90;;;20.40;99.90;;;;;;5055644;28;20542;-60
2022/05/14 09:18:04;;;;;;;5.77;2.40;;;20.50;99.90;;;;;;5055551;28;20484;-60
2022/05/14 09:20:43;;;;;;;8.57;3.27;;;20.70;99.90;;;;;;5055760;28;20451;-58
2022/05/14 09:23:10;;;;;;;6.00;2.87;;;21.00;99.90;;;;;;5055848;28;20444;-60
2022/05/14 09:25:40;;;;;;;6.13;3.73;;;21.20;99.90;;;;;;5055757;28;20888;-60
2022/05/14 09:28:10;;;;;;;4.43;2.40;;;21.30;99.90;;;;;;5055675;28;20539;-60
2022/05/14 09:30:40;;;;;;;4.20;2.67;;;21.60;99.90;;;;;;5055444;28;20535;-60
2022/05/14 09:33:21;;;;;;;10.80;2.60;;;21.50;99.90;;;;;;5055321;28;20943;-60
2022/05/14 09:35:55;;;;;;;6.20;2.47;;;21.30;99.90;;;;;;5055568;28;20854;-60
2022/05/14 09:38:23;;;;;;;7.20;3.20;;;21.20;99.90;;;;;;5055236;28;20535;-60
2022/05/14 09:40:50;;;;;;;9.00;3.10;;;21.00;99.90;;;;;;5055181;28;20498;-60
2022/05/14 09:43:30;;;;;;;7.60;2.30;;;20.80;99.90;;;;;;5054927;28;20983;-60
2022/05/14 09:46:01;;;;;;;8.60;2.80;;;20.70;99.90;;;;;;5055277;28;20527;-60
2022/05/14 09:48:34;;;;;;;5.57;2.67;;;20.70;99.90;;;;;;5055227;28;20479;-60
2022/05/14 09:51:02;;;;;;;5.33;2.80;;;20.90;99.90;;;;;;5055129;28;20459;-60
2022/05/14 09:53:31;;;;;;;5.73;2.57;;;21.00;99.90;;;;;;5054954;28;20456;-60
2022/05/14 09:56:22;;;;;;;9.70;3.80;;;21.10;99.90;;;;;;5055095;28;20453;-60
2022/05/14 09:58:57;;;;;;;5.07;2.37;;;21.00;99.90;;;;;;5054814;28;20453;-60
2022/05/14 10:01:31;;;;;;;5.37;2.50;;;20.80;99.90;;;;;;5054976;28;20452;-60
2022/05/14 10:04:10;;;;;;;5.80;2.60;;;20.90;99.90;;;;;;5054649;28;20452;-60
2022/05/14 10:06:42;;;;;;;6.43;2.47;;;20.80;99.90;;;;;;5054890;28;20452;-60
2022/05/14 10:09:20;;;;;;;8.47;2.47;;;20.70;99.90;;;;;;5054585;28;21023;-60
2022/05/14 10:11:52;;;;;;;7.00;2.90;;;20.50;99.90;;;;;;5054782;28;20479;-60
2022/05/14 10:14:29;;;;;;;5.87;2.70;;;20.50;99.90;;;;;;5054184;28;20459;-60
2022/05/14 10:17:12;;;;;;;3.80;2.30;;;20.70;99.90;;;;;;5054599;28;20471;-60
2022/05/14 10:19:59;;;;;;;6.73;2.33;;;20.80;99.90;;;;;;5054644;28;20452;-60
2022/05/14 10:26:44;;;;;;;5.33;2.70;;;20.80;99.90;;;;;;5054307;28;20444;-60
2022/05/14 10:28:20;;;;;;;7.67;2.80;;;20.60;99.90;;;;;;5054277;28;20574;-60
2022/05/14 10:30:53;;;;;;;7.17;2.80;;;20.70;99.90;;;;;;5054422;28;20808;-60
2022/05/14 10:33:25;;;;;;;4.27;2.77;;;20.60;99.90;;;;;;5054311;28;20815;-60
2022/05/14 10:35:57;;;;;;;4.23;2.40;;;20.60;99.90;;;;;;5054205;28;20480;-60
2022/05/14 10:38:26;;;;;;;5.00;2.40;;;20.90;99.90;;;;;;5054132;28;20490;-60
2022/05/14 10:40:59;;;;;;;6.03;2.43;;;21.00;99.90;;;;;;5054085;28;20448;-60
2022/05/14 10:43:35;;;;;;;5.70;2.43;;;21.20;99.90;;;;;;5053868;28;20896;-60
2022/05/14 10:46:07;;;;;;;9.27;3.00;;;21.40;99.90;;;;;;5054156;28;20479;-60
2022/05/14 10:48:41;;;;;;;9.87;3.33;;;21.50;99.90;;;;;;5054064;28;20462;-60
2022/05/14 10:51:19;;;;;;;4.60;2.30;;;21.60;99.90;;;;;;5054047;28;20805;-60
2022/05/14 10:53:45;;;;;;;4.10;2.40;;;21.50;99.90;;;;;;5053716;28;20538;-60
2022/05/14 10:56:17;;;;;;;10.70;3.90;;;21.40;99.90;;;;;;5054024;28;20444;-60
2022/05/14 10:58:57;;;;;;;10.03;2.30;;;21.40;99.90;;;;;;5053815;28;20882;-60
2022/05/14 11:01:30;;;;;;;5.83;2.10;;;21.50;99.90;;;;;;5053774;28;20448;-60
2022/05/14 11:03:58;;;;;;;7.83;2.57;;;21.60;99.90;;;;;;5053656;28;20452;-60
2022/05/14 11:06:32;;;;;;;7.17;3.33;;;21.70;99.90;;;;;;5053524;28;20582;-60
2022/05/14 11:08:59;;;;;;;10.60;3.07;;;21.60;99.90;;;;;;5053678;28;20444;-60
2022/05/14 11:11:27;;;;;;;5.20;2.70;;;21.80;99.90;;;;;;5053278;28;20955;-60
2022/05/14 11:14:01;;;;;;;5.03;2.60;;;21.90;99.90;;;;;;5053499;28;20534;-60
2022/05/14 11:16:38;;;;;;;8.13;2.60;;;22.00;99.90;;;;;;5053313;28;20483;-60
2022/05/14 11:19:05;;;;;;;3.50;2.20;;;22.10;99.90;;;;;;5053629;28;20440;-60
2022/05/14 11:21:39;;;;;;;8.47;3.17;;;22.20;99.90;;;;;;5053568;28;20468;-60
2022/05/14 11:24:07;;;;;;;4.57;2.33;;;22.40;99.90;;;;;;5053489;28;20504;-60
2022/05/14 11:26:48;;;;;;;5.13;2.63;;;22.20;99.90;;;;;;5052596;28;20476;-60
2022/05/14 11:29:18;;;;;;;8.30;2.70;;;22.20;99.90;;;;;;5053062;28;20448;-60
2022/05/14 11:31:53;;;;;;;8.20;2.27;;;22.30;99.90;;;;;;5053413;28;21018;-60
2022/05/14 11:34:21;;;;;;;6.43;2.40;;;22.40;99.90;;;;;;5053140;28;20454;-60
2022/05/14 11:36:52;;;;;;;4.30;2.30;;;22.30;99.90;;;;;;5053125;28;20449;-60
2022/05/14 11:39:32;;;;;;;4.50;2.20;;;22.20;99.90;;;;;;5053142;28;20452;-60
2022/05/14 11:42:12;;;;;;;7.23;2.70;;;22.00;99.90;;;;;;5053380;28;20972;-60
2022/05/14 11:44:47;;;;;;;6.27;2.33;;;21.90;99.90;;;;;;5053096;28;20448;-60
2022/05/14 11:47:42;;;;;;;8.03;2.47;;;21.90;99.90;;;;;;5053116;28;20463;-60
2022/05/14 11:50:11;;;;;;;6.30;2.33;;;22.00;99.90;;;;;;5052896;28;20480;-60
2022/05/14 11:52:48;;;;;;;12.03;4.77;;;22.20;99.90;;;;;;5053016;28;20479;-60
2022/05/14 11:55:21;;;;;;;6.07;2.33;;;22.40;99.90;;;;;;5052996;28;20860;-60
2022/05/14 11:57:51;;;;;;;5.27;2.40;;;22.20;99.90;;;;;;5052726;28;20502;-60
2022/05/14 12:00:20;;;;;;;5.60;2.40;;;22.00;99.90;;;;;;5052744;28;20543;-60
2022/05/14 12:02:52;;;;;;;5.97;3.03;;;22.30;99.90;;;;;;5053001;28;20452;-60
2022/05/14 12:05:23;;;;;;;6.40;2.53;;;22.40;99.90;;;;;;5052752;28;20940;-60
2022/05/14 12:08:14;;;;;;;5.13;2.73;;;22.60;99.90;;;;;;5052787;28;20474;-60
2022/05/14 12:10:50;;;;;;;11.40;2.97;;;22.80;99.90;;;;;;5052727;28;20462;-60
2022/05/14 12:13:23;;;;;;;6.03;2.47;;;22.80;99.90;;;;;;5052833;28;20448;-60
2022/05/14 12:15:52;;;;;;;7.63;2.33;;;22.50;99.90;;;;;;5052786;28;20456;-60
2022/05/14 12:18:19;;;;;;;4.33;2.13;;;22.30;99.90;;;;;;5052705;28;20879;-60
2022/05/14 12:20:54;;;;;;;5.00;2.50;;;22.30;99.90;;;;;;5052529;28;20488;-60
2022/05/14 12:23:33;;;;;;;7.67;2.80;;;22.30;99.90;;;;;;5052426;28;20456;-60
2022/05/14 12:26:00;;;;;;;4.77;2.20;;;22.40;99.90;;;;;;5052621;28;20540;-60
2022/05/14 12:28:30;;;;;;;8.13;3.17;;;22.40;99.90;;;;;;5052684;28;20452;-60
2022/05/14 12:33:52;;;;;;;5.13;2.40;;;22.40;99.90;;;;;;5052560;28;20528;-60
2022/05/14 12:36:19;;;;;;;12.53;2.63;;;22.30;99.90;;;;;;5052577;28;20867;-60
2022/05/14 12:38:47;;;;;;;7.57;2.80;;;22.20;99.90;;;;;;5055754;28;20490;-60
2022/05/14 12:41:22;;;;;;;5.87;2.70;;;22.30;99.90;;;;;;5056382;28;20480;-60
2022/05/14 12:43:49;;;;;;;7.33;2.53;;;22.40;99.90;;;;;;5056189;28;20563;-60
2022/05/14 12:46:19;;;;;;;6.93;2.77;;;22.50;99.90;;;;;;5056278;28;20479;-60
2022/05/14 12:48:48;;;;;;;8.73;3.17;;;22.40;99.90;;;;;;5056489;28;20484;-60
2022/05/14 12:51:18;;;;;;;4.40;2.70;;;22.30;99.90;;;;;;5056305;28;20448;-60
2022/05/14 12:53:44;;;;;;;5.53;2.40;;;22.10;99.90;;;;;;5056050;28;20959;-60
2022/05/14 12:56:12;;;;;;;7.47;2.63;;;22.10;99.90;;;;;;5056045;28;20448;-60
2022/05/14 12:58:41;;;;;;;9.03;2.70;;;22.10;99.90;;;;;;5055966;28;20511;-60
2022/05/14 13:01:09;;;;;;;6.60;2.73;;;22.10;99.90;;;;;;5055915;28;20448;-60
2022/05/14 13:03:39;;;;;;;7.50;3.43;;;22.20;99.90;;;;;;5056315;28;20448;-60
2022/05/14 13:06:09;;;;;;;7.50;2.83;;;22.20;99.90;;;;;;5056070;28;20456;-60
2022/05/14 13:08:41;;;;;;;5.10;2.73;;;22.40;99.90;;;;;;5055828;28;20570;-60
2022/05/14 13:11:16;;;;;;;12.03;2.97;;;22.60;99.90;;;;;;5055724;28;21030;-60
2022/05/14 13:13:46;;;;;;;5.93;2.97;;;22.60;99.90;;;;;;5055967;28;20440;-60
2022/05/14 13:16:16;;;;;;;10.80;3.57;;;22.60;99.90;;;;;;5055870;28;20449;-60
2022/05/14 13:18:45;;;;;;;4.37;2.63;;;22.60;99.90;;;;;;5055681;28;20512;-60
2022/05/14 13:21:19;;;;;;;8.03;3.20;;;22.50;99.90;;;;;;5055640;28;20448;-60
2022/05/14 13:23:54;;;;;;;9.63;2.80;;;22.50;99.90;;;;;;5055545;28;20484;-60
2022/05/14 13:26:32;;;;;;;7.27;3.10;;;22.50;99.90;;;;;;5055477;28;20961;-60
2022/05/14 13:29:11;;;;;;;6.23;2.10;;;22.50;99.90;;;;;;5055641;28;20456;-60
2022/05/14 13:31:38;;;;;;;7.00;3.40;;;22.50;99.90;;;;;;5055521;28;20452;-60
2022/05/14 13:39:30;;;;;;;10.37;3.07;;;22.20;99.80;;;;;;5055189;28;20487;-60
2022/05/14 13:41:58;;;;;;;5.63;2.50;;;22.30;99.90;;;;;;5055251;28;20448;-60
2022/05/14 13:44:27;;;;;;;14.93;4.97;;;22.30;99.90;;;;;;5054930;28;20502;-60
2022/05/14 13:46:57;;;;;;;11.23;3.90;;;22.40;99.90;;;;;;5054902;28;20544;-60
2022/05/14 13:49:26;;;;;;;8.53;3.20;;;22.30;99.90;;;;;;5054533;28;20551;-60
2022/05/14 13:51:55;;;;;;;10.57;3.17;;;22.30;99.90;;;;;;5055211;28;20456;-60
2022/05/14 13:54:31;;;;;;;7.33;3.07;;;22.30;99.90;;;;;;5055072;28;20452;-60
2022/05/14 13:57:03;;;;;;;6.40;3.17;;;22.40;99.90;;;;;;5055018;28;20479;-60
2022/05/14 13:59:32;;;;;;;7.53;4.23;;;22.30;99.90;;;;;;5054924;28;20486;-60
2022/05/14 14:02:18;;;;;;;6.80;2.87;;;22.40;99.90;;;;;;5055004;28;20484;-60
2022/05/14 14:04:45;;;;;;;5.30;3.00;;;22.40;99.90;;;;;;5054853;28;20948;-60
2022/05/14 14:07:12;;;;;;;5.73;2.80;;;22.40;99.90;;;;;;5054834;28;20548;-60
2022/05/14 14:09:40;;;;;;;5.87;2.70;;;22.40;99.90;;;;;;5054670;28;20458;-60